sensor_id;sensor_type;location;lat;lon;timestamp;pressure;altitude;pressure_sealevel;temperature;humidity
6423;BME280;3244;42.708;23.288;2023-04-20T00:01:57;94684.38;;;11.67;74.56
6423;BME280;3244;42.708;23.288;2023-04-20T00:04:27;94691.41;;;11.62;74.24
6423;BME280;3244;42.708;23.288;2023-04-20T00:06:55;94690.56;;;11.62;74.43
6423;BME280;3244;42.708;23.288;2023-04-20T00:09:23;94688.63;;;11.67;74.66
6423;BME280;3244;42.708;23.288;2023-04-20T00:11:50;94679.50;;;11.63;75.21
6423;BME280;3244;42.708;23.288;2023-04-20T00:14:17;94683.53;;;11.67;74.90
6423;BME280;3244;42.708;23.288;2023-04-20T00:16:43;94677.84;;;11.62;75.64
6423;BME280;3244;42.708;23.288;2023-04-20T00:19:10;94673.50;;;11.64;75.73
6423;BME280;3244;42.708;23.288;2023-04-20T00:21:37;94671.56;;;11.69;75.66
6423;BME280;3244;42.708;23.288;2023-04-20T00:24:06;94678.56;;;11.64;75.90
6423;BME280;3244;42.708;23.288;2023-04-20T00:26:32;94678.56;;;11.64;75.92
6423;BME280;3244;42.708;23.288;2023-04-20T00:28:59;94675.63;;;11.73;74.45
6423;BME280;3244;42.708;23.288;2023-04-20T00:31:26;94682.38;;;11.74;74.55
6423;BME280;3244;42.708;23.288;2023-04-20T00:33:53;94678.19;;;11.73;74.67
6423;BME280;3244;42.708;23.288;2023-04-20T00:36:19;94678.06;;;11.76;74.44
6423;BME280;3244;42.708;23.288;2023-04-20T00:38:46;94674.31;;;11.84;73.93
6423;BME280;3244;42.708;23.288;2023-04-20T00:41:14;94677.25;;;11.94;74.14
6423;BME280;3244;42.708;23.288;2023-04-20T00:43:49;94673.56;;;11.82;73.96
6423;BME280;3244;42.708;23.288;2023-04-20T00:46:16;94677.81;;;11.82;74.00
6423;BME280;3244;42.708;23.288;2023-04-20T00:48:43;94673.34;;;11.87;72.51
6423;BME280;3244;42.708;23.288;2023-04-20T00:51:11;94674.59;;;11.97;71.20
6423;BME280;3244;42.708;23.288;2023-04-20T00:53:38;94676.28;;;11.97;71.55
6423;BME280;3244;42.708;23.288;2023-04-20T00:56:06;94668.66;;;11.97;72.18
6423;BME280;3244;42.708;23.288;2023-04-20T00:58:35;94651.41;;;11.84;71.61
6423;BME280;3244;42.708;23.288;2023-04-20T01:01:02;94663.75;;;11.92;70.78
6423;BME280;3244;42.708;23.288;2023-04-20T01:03:30;94660.47;;;11.90;71.52
6423;BME280;3244;42.708;23.288;2023-04-20T01:05:57;94671.84;;;11.83;71.28
6423;BME280;3244;42.708;23.288;2023-04-20T01:08:25;94670.00;;;11.86;71.88
6423;BME280;3244;42.708;23.288;2023-04-20T01:10:51;94664.19;;;11.83;71.99
6423;BME280;3244;42.708;23.288;2023-04-20T01:13:18;94661.03;;;11.78;72.48
6423;BME280;3244;42.708;23.288;2023-04-20T01:15:46;94665.72;;;11.87;72.09
6423;BME280;3244;42.708;23.288;2023-04-20T01:18:13;94661.47;;;11.87;72.25
6423;BME280;3244;42.708;23.288;2023-04-20T01:20:42;94659.94;;;11.83;72.54
6423;BME280;3244;42.708;23.288;2023-04-20T01:23:10;94662.47;;;11.83;72.31
6423;BME280;3244;42.708;23.288;2023-04-20T01:25:37;94662.69;;;11.79;71.67
6423;BME280;3244;42.708;23.288;2023-04-20T01:28:04;94661.66;;;11.83;71.56
6423;BME280;3244;42.708;23.288;2023-04-20T01:30:31;94657.47;;;11.82;71.03
6423;BME280;3244;42.708;23.288;2023-04-20T01:32:58;94663.75;;;11.92;70.34
6423;BME280;3244;42.708;23.288;2023-04-20T01:35:24;94650.91;;;11.95;71.19
6423;BME280;3244;42.708;23.288;2023-04-20T01:37:51;94649.13;;;11.97;71.11
6423;BME280;3244;42.708;23.288;2023-04-20T01:40:19;94643.69;;;11.86;71.40
6423;BME280;3244;42.708;23.288;2023-04-20T01:42:46;94649.88;;;11.80;71.67
6423;BME280;3244;42.708;23.288;2023-04-20T01:45:13;94651.06;;;11.72;71.61
6423;BME280;3244;42.708;23.288;2023-04-20T01:47:39;94642.06;;;11.65;71.59
6423;BME280;3244;42.708;23.288;2023-04-20T01:50:07;94650.25;;;11.52;71.58
6423;BME280;3244;42.708;23.288;2023-04-20T01:52:33;94646.94;;;11.50;72.99
6423;BME280;3244;42.708;23.288;2023-04-20T01:55:00;94642.53;;;11.35;73.30
6423;BME280;3244;42.708;23.288;2023-04-20T01:57:28;94641.00;;;11.31;73.50
6423;BME280;3244;42.708;23.288;2023-04-20T01:59:55;94635.91;;;11.31;73.45
6423;BME280;3244;42.708;23.288;2023-04-20T02:02:22;94650.09;;;11.37;73.69
6423;BME280;3244;42.708;23.288;2023-04-20T02:04:48;94642.41;;;11.38;73.21
6423;BME280;3244;42.708;23.288;2023-04-20T02:07:15;94642.53;;;11.35;72.61
6423;BME280;3244;42.708;23.288;2023-04-20T02:09:42;94641.97;;;11.29;73.00
6423;BME280;3244;42.708;23.288;2023-04-20T02:12:08;94635.16;;;11.29;73.20
6423;BME280;3244;42.708;23.288;2023-04-20T02:14:36;94640.81;;;11.36;73.26
6423;BME280;3244;42.708;23.288;2023-04-20T02:17:03;94640.59;;;11.40;73.36
6423;BME280;3244;42.708;23.288;2023-04-20T02:19:30;94644.25;;;11.35;73.37
6423;BME280;3244;42.708;23.288;2023-04-20T02:21:57;94646.72;;;11.36;73.71
6423;BME280;3244;42.708;23.288;2023-04-20T02:24:24;94643.97;;;11.41;72.62
6423;BME280;3244;42.708;23.288;2023-04-20T02:26:50;94648.03;;;11.45;71.77
6423;BME280;3244;42.708;23.288;2023-04-20T02:29:17;94645.66;;;11.40;72.40
6423;BME280;3244;42.708;23.288;2023-04-20T02:31:45;94645.53;;;11.43;72.70
6423;BME280;3244;42.708;23.288;2023-04-20T02:34:12;94641.84;;;11.50;71.41
6423;BME280;3244;42.708;23.288;2023-04-20T02:36:39;94641.84;;;11.50;71.41
6423;BME280;3244;42.708;23.288;2023-04-20T02:39:05;94640.31;;;11.46;71.94
6423;BME280;3244;42.708;23.288;2023-04-20T02:41:32;94646.88;;;11.52;72.22
6423;BME280;3244;42.708;23.288;2023-04-20T02:43:59;94644.06;;;11.58;72.65
6423;BME280;3244;42.708;23.288;2023-04-20T02:46:25;94640.91;;;11.72;71.74
6423;BME280;3244;42.708;23.288;2023-04-20T02:48:53;94646.13;;;11.69;72.36
6423;BME280;3244;42.708;23.288;2023-04-20T02:51:20;94632.22;;;11.76;72.28
6423;BME280;3244;42.708;23.288;2023-04-20T02:53:47;94641.16;;;11.66;71.97
6423;BME280;3244;42.708;23.288;2023-04-20T02:56:14;94639.50;;;11.65;71.98
6423;BME280;3244;42.708;23.288;2023-04-20T02:58:41;94637.72;;;11.67;71.75
6423;BME280;3244;42.708;23.288;2023-04-20T03:01:07;94635.19;;;11.67;71.37
6423;BME280;3244;42.708;23.288;2023-04-20T03:03:34;94639.38;;;11.68;71.62
6423;BME280;3244;42.708;23.288;2023-04-20T03:06:03;94640.13;;;11.70;71.38
6423;BME280;3244;42.708;23.288;2023-04-20T03:08:29;94636.63;;;11.72;71.46
6423;BME280;3244;42.708;23.288;2023-04-20T03:10:56;94645.09;;;11.73;71.63
6423;BME280;3244;42.708;23.288;2023-04-20T03:13:23;94638.88;;;11.80;71.01
6423;BME280;3244;42.708;23.288;2023-04-20T03:15:49;94643.00;;;11.82;70.89
6423;BME280;3244;42.708;23.288;2023-04-20T03:18:16;94641.56;;;11.77;71.19
6423;BME280;3244;42.708;23.288;2023-04-20T03:20:43;94642.56;;;11.73;71.42
6423;BME280;3244;42.708;23.288;2023-04-20T03:23:11;94641.22;;;11.84;70.97
6423;BME280;3244;42.708;23.288;2023-04-20T03:25:38;94644.88;;;11.79;70.47
6423;BME280;3244;42.708;23.288;2023-04-20T03:28:05;94644.97;;;11.76;71.09
6423;BME280;3244;42.708;23.288;2023-04-20T03:30:31;94644.28;;;11.91;70.17
6423;BME280;3244;42.708;23.288;2023-04-20T03:32:58;94646.31;;;11.84;70.04
6423;BME280;3244;42.708;23.288;2023-04-20T03:35:25;94645.84;;;11.75;70.55
6423;BME280;3244;42.708;23.288;2023-04-20T03:37:51;94644.47;;;11.68;70.93
6423;BME280;3244;42.708;23.288;2023-04-20T03:40:20;94638.47;;;11.69;71.25
6423;BME280;3244;42.708;23.288;2023-04-20T03:42:46;94640.91;;;11.72;71.50
6423;BME280;3244;42.708;23.288;2023-04-20T03:45:14;94647.28;;;11.82;71.28
6423;BME280;3244;42.708;23.288;2023-04-20T03:47:41;94656.16;;;11.72;71.23
6423;BME280;3244;42.708;23.288;2023-04-20T03:50:08;94647.63;;;11.73;71.31
6423;BME280;3244;42.708;23.288;2023-04-20T03:52:35;94640.75;;;11.75;70.58
6423;BME280;3244;42.708;23.288;2023-04-20T03:55:02;94645.81;;;11.76;71.08
6423;BME280;3244;42.708;23.288;2023-04-20T03:57:31;94658.22;;;11.84;71.07
6423;BME280;3244;42.708;23.288;2023-04-20T03:59:58;94644.44;;;11.88;70.92
6423;BME280;3244;42.708;23.288;2023-04-20T04:02:25;94640.25;;;11.87;71.21
6423;BME280;3244;42.708;23.288;2023-04-20T04:04:52;94653.59;;;11.92;71.04
6423;BME280;3244;42.708;23.288;2023-04-20T04:07:19;94652.34;;;12.01;70.88
6423;BME280;3244;42.708;23.288;2023-04-20T04:09:45;94650.22;;;11.91;70.63
6423;BME280;3244;42.708;23.288;2023-04-20T04:12:12;94652.06;;;11.88;70.71
6423;BME280;3244;42.708;23.288;2023-04-20T04:14:40;94652.06;;;11.88;70.77
6423;BME280;3244;42.708;23.288;2023-04-20T04:17:07;94658.09;;;11.87;70.34
6423;BME280;3244;42.708;23.288;2023-04-20T04:19:34;94653.59;;;11.92;70.16
6423;BME280;3244;42.708;23.288;2023-04-20T04:22:00;94658.63;;;12.12;69.28
6423;BME280;3244;42.708;23.288;2023-04-20T04:24:27;94657.09;;;12.08;69.91
6423;BME280;3244;42.708;23.288;2023-04-20T04:26:55;94657.56;;;11.98;70.16
6423;BME280;3244;42.708;23.288;2023-04-20T04:29:22;94655.25;;;11.93;70.41
6423;BME280;3244;42.708;23.288;2023-04-20T04:31:51;94648.50;;;11.92;70.57
6423;BME280;3244;42.708;23.288;2023-04-20T04:34:18;94666.25;;;12.12;69.14
6423;BME280;3244;42.708;23.288;2023-04-20T04:36:45;94660.44;;;12.27;69.27
6423;BME280;3244;42.708;23.288;2023-04-20T04:39:13;94661.56;;;12.22;68.77
6423;BME280;3244;42.708;23.288;2023-04-20T04:41:39;94667.19;;;12.29;69.36
6423;BME280;3244;42.708;23.288;2023-04-20T04:44:06;94662.25;;;12.25;68.81
6423;BME280;3244;42.708;23.288;2023-04-20T04:46:33;94670.44;;;12.13;69.49
6423;BME280;3244;42.708;23.288;2023-04-20T04:49:02;94670.09;;;12.02;70.14
6423;BME280;3244;42.708;23.288;2023-04-20T04:51:30;94675.81;;;12.07;70.01
6423;BME280;3244;42.708;23.288;2023-04-20T04:53:57;94675.81;;;12.07;70.30
6423;BME280;3244;42.708;23.288;2023-04-20T04:56:24;94679.91;;;12.11;70.63
6423;BME280;3244;42.708;23.288;2023-04-20T04:58:50;94682.28;;;12.14;70.40
6423;BME280;3244;42.708;23.288;2023-04-20T05:01:17;94681.38;;;12.15;70.27
6423;BME280;3244;42.708;23.288;2023-04-20T05:03:44;94686.19;;;12.21;69.84
6423;BME280;3244;42.708;23.288;2023-04-20T05:06:12;94688.34;;;12.31;70.11
6423;BME280;3244;42.708;23.288;2023-04-20T05:08:39;94688.50;;;12.45;68.55
6423;BME280;3244;42.708;23.288;2023-04-20T05:11:06;94685.19;;;12.43;67.82
6423;BME280;3244;42.708;23.288;2023-04-20T05:13:33;94692.97;;;12.40;68.10
6423;BME280;3244;42.708;23.288;2023-04-20T05:15:59;94686.84;;;12.44;67.75
6423;BME280;3244;42.708;23.288;2023-04-20T05:18:26;94684.94;;;12.49;67.43
6423;BME280;3244;42.708;23.288;2023-04-20T05:20:53;94682.03;;;12.56;68.43
6423;BME280;3244;42.708;23.288;2023-04-20T05:23:21;94689.75;;;12.55;67.93
6423;BME280;3244;42.708;23.288;2023-04-20T05:25:48;94691.69;;;12.50;67.72
6423;BME280;3244;42.708;23.288;2023-04-20T05:28:14;94680.41;;;12.37;68.15
6423;BME280;3244;42.708;23.288;2023-04-20T05:30:42;94692.72;;;12.46;68.21
6423;BME280;3244;42.708;23.288;2023-04-20T05:33:08;94693.41;;;12.49;67.44
6423;BME280;3244;42.708;23.288;2023-04-20T05:35:35;94700.22;;;12.49;67.75
6423;BME280;3244;42.708;23.288;2023-04-20T05:38:04;94691.63;;;12.69;67.32
6423;BME280;3244;42.708;23.288;2023-04-20T05:40:32;94693.00;;;12.76;67.26
6423;BME280;3244;42.708;23.288;2023-04-20T05:42:59;94696.28;;;12.78;66.86
6423;BME280;3244;42.708;23.288;2023-04-20T05:45:26;94696.22;;;12.79;66.98
6423;BME280;3244;42.708;23.288;2023-04-20T05:47:53;94698.78;;;12.79;66.53
6423;BME280;3244;42.708;23.288;2023-04-20T05:50:20;94682.41;;;12.66;66.39
6423;BME280;3244;42.708;23.288;2023-04-20T05:52:47;94693.53;;;12.82;66.54
6423;BME280;3244;42.708;23.288;2023-04-20T05:55:14;94699.75;;;12.77;66.60
6423;BME280;3244;42.708;23.288;2023-04-20T05:57:42;94696.97;;;12.81;66.64
6423;BME280;3244;42.708;23.288;2023-04-20T06:00:10;94693.13;;;12.90;67.42
6423;BME280;3244;42.708;23.288;2023-04-20T06:02:38;94687.38;;;12.86;67.50
6423;BME280;3244;42.708;23.288;2023-04-20T06:05:06;94701.94;;;13.02;67.75
6423;BME280;3244;42.708;23.288;2023-04-20T06:07:33;94698.41;;;13.04;67.03
6423;BME280;3244;42.708;23.288;2023-04-20T06:10:00;94693.84;;;13.11;66.61
6423;BME280;3244;42.708;23.288;2023-04-20T06:12:27;94691.75;;;13.19;67.02
6423;BME280;3244;42.708;23.288;2023-04-20T06:14:57;94699.59;;;13.14;67.27
6423;BME280;3244;42.708;23.288;2023-04-20T06:17:23;94702.72;;;13.21;66.76
6423;BME280;3244;42.708;23.288;2023-04-20T06:19:51;94703.16;;;13.29;66.64
6423;BME280;3244;42.708;23.288;2023-04-20T06:22:18;94698.06;;;13.29;66.81
6423;BME280;3244;42.708;23.288;2023-04-20T06:24:45;94704.06;;;13.28;67.71
6423;BME280;3244;42.708;23.288;2023-04-20T06:27:12;94704.00;;;13.30;67.29
6423;BME280;3244;42.708;23.288;2023-04-20T06:29:39;94702.88;;;13.35;67.43
6423;BME280;3244;42.708;23.288;2023-04-20T06:32:07;94702.19;;;13.65;67.44
6423;BME280;3244;42.708;23.288;2023-04-20T06:34:34;94691.72;;;13.53;66.99
6423;BME280;3244;42.708;23.288;2023-04-20T06:37:00;94699.16;;;13.58;67.11
6423;BME280;3244;42.708;23.288;2023-04-20T06:39:27;94699.78;;;13.61;66.78
6423;BME280;3244;42.708;23.288;2023-04-20T06:41:54;94702.13;;;13.66;66.47
6423;BME280;3244;42.708;23.288;2023-04-20T06:44:21;94688.28;;;13.54;66.58
6423;BME280;3244;42.708;23.288;2023-04-20T06:46:47;94711.44;;;13.67;66.44
6423;BME280;3244;42.708;23.288;2023-04-20T06:49:15;94707.16;;;13.68;67.86
6423;BME280;3244;42.708;23.288;2023-04-20T06:51:42;94724.09;;;13.53;68.66
6423;BME280;3244;42.708;23.288;2023-04-20T06:54:09;94719.34;;;13.45;70.22
6423;BME280;3244;42.708;23.288;2023-04-20T06:56:36;94715.03;;;13.30;70.87
6423;BME280;3244;42.708;23.288;2023-04-20T06:59:02;94721.19;;;13.26;70.73
6423;BME280;3244;42.708;23.288;2023-04-20T07:01:29;94717.13;;;13.22;71.09
6423;BME280;3244;42.708;23.288;2023-04-20T07:03:56;94723.72;;;13.26;70.63
6423;BME280;3244;42.708;23.288;2023-04-20T07:06:24;94723.94;;;13.39;70.48
6423;BME280;3244;42.708;23.288;2023-04-20T07:08:52;94730.16;;;13.50;70.72
6423;BME280;3244;42.708;23.288;2023-04-20T07:11:18;94719.59;;;13.74;69.51
6423;BME280;3244;42.708;23.288;2023-04-20T07:13:45;94720.38;;;13.91;68.82
6423;BME280;3244;42.708;23.288;2023-04-20T07:16:14;94722.31;;;14.19;68.59
6423;BME280;3244;42.708;23.288;2023-04-20T07:18:41;94729.63;;;14.58;67.47
6423;BME280;3244;42.708;23.288;2023-04-20T07:21:08;94724.97;;;14.81;65.68
6423;BME280;3244;42.708;23.288;2023-04-20T07:23:36;94728.56;;;15.08;65.25
6423;BME280;3244;42.708;23.288;2023-04-20T07:26:02;94722.53;;;15.53;63.12
6423;BME280;3244;42.708;23.288;2023-04-20T07:28:29;94721.31;;;16.03;61.97
6423;BME280;3244;42.708;23.288;2023-04-20T07:30:56;94727.91;;;16.62;59.12
6423;BME280;3244;42.708;23.288;2023-04-20T07:33:23;94717.44;;;17.19;58.00
6423;BME280;3244;42.708;23.288;2023-04-20T07:35:50;94716.38;;;17.61;56.11
6423;BME280;3244;42.708;23.288;2023-04-20T07:38:17;94707.78;;;18.50;53.64
6423;BME280;3244;42.708;23.288;2023-04-20T07:40:45;94713.06;;;19.20;51.30
6423;BME280;3244;42.708;23.288;2023-04-20T07:43:12;94708.31;;;19.73;50.25
6423;BME280;3244;42.708;23.288;2023-04-20T07:45:38;94709.53;;;20.24;48.34
6423;BME280;3244;42.708;23.288;2023-04-20T07:48:06;94709.72;;;20.77;46.70
6423;BME280;3244;42.708;23.288;2023-04-20T07:50:33;94705.44;;;21.51;45.20
6423;BME280;3244;42.708;23.288;2023-04-20T07:53:00;94705.69;;;22.51;43.24
6423;BME280;3244;42.708;23.288;2023-04-20T07:55:27;94699.44;;;22.23;42.58
6423;BME280;3244;42.708;23.288;2023-04-20T07:57:55;94700.63;;;22.59;41.74
6423;BME280;3244;42.708;23.288;2023-04-20T08:00:23;94675.44;;;23.86;39.63
6423;BME280;3244;42.708;23.288;2023-04-20T08:02:50;94693.13;;;24.74;37.85
6423;BME280;3244;42.708;23.288;2023-04-20T08:05:16;94698.03;;;24.13;38.50
6423;BME280;3244;42.708;23.288;2023-04-20T08:07:43;94696.25;;;22.99;40.18
6423;BME280;3244;42.708;23.288;2023-04-20T08:10:10;94701.44;;;21.89;42.25
6423;BME280;3244;42.708;23.288;2023-04-20T08:12:37;94709.47;;;20.69;44.97
6423;BME280;3244;42.708;23.288;2023-04-20T08:15:07;94708.06;;;19.53;47.68
6423;BME280;3244;42.708;23.288;2023-04-20T08:17:34;94709.63;;;18.48;49.46
6423;BME280;3244;42.708;23.288;2023-04-20T08:20:00;94712.63;;;17.80;52.03
6423;BME280;3244;42.708;23.288;2023-04-20T08:22:30;94712.97;;;17.48;53.74
6423;BME280;3244;42.708;23.288;2023-04-20T08:24:57;94720.38;;;17.40;54.41
6423;BME280;3244;42.708;23.288;2023-04-20T08:27:24;94715.94;;;17.42;54.61
6423;BME280;3244;42.708;23.288;2023-04-20T08:29:53;94711.22;;;17.36;53.56
6423;BME280;3244;42.708;23.288;2023-04-20T08:32:22;94711.22;;;17.36;53.17
6423;BME280;3244;42.708;23.288;2023-04-20T08:34:50;94710.09;;;17.40;53.30
6423;BME280;3244;42.708;23.288;2023-04-20T08:37:17;94719.25;;;17.44;54.10
6423;BME280;3244;42.708;23.288;2023-04-20T08:39:44;94712.47;;;17.43;52.73
6423;BME280;3244;42.708;23.288;2023-04-20T08:42:11;94713.78;;;17.36;52.92
6423;BME280;3244;42.708;23.288;2023-04-20T08:44:38;94715.81;;;17.18;53.43
6423;BME280;3244;42.708;23.288;2023-04-20T08:47:05;94719.50;;;16.87;53.63
6423;BME280;3244;42.708;23.288;2023-04-20T08:49:36;94715.66;;;16.53;55.15
6423;BME280;3244;42.708;23.288;2023-04-20T08:52:04;94721.66;;;16.25;56.27
6423;BME280;3244;42.708;23.288;2023-04-20T08:54:31;94715.44;;;16.15;56.51
6423;BME280;3244;42.708;23.288;2023-04-20T08:56:58;94722.06;;;16.05;56.04
6423;BME280;3244;42.708;23.288;2023-04-20T08:59:26;94725.88;;;15.98;57.00
6423;BME280;3244;42.708;23.288;2023-04-20T09:01:52;94714.16;;;15.94;56.48
6423;BME280;3244;42.708;23.288;2023-04-20T09:04:20;94716.75;;;15.80;56.94
6423;BME280;3244;42.708;23.288;2023-04-20T09:06:51;94723.53;;;15.81;56.59
6423;BME280;3244;42.708;23.288;2023-04-20T09:09:20;94725.53;;;16.04;56.34
6423;BME280;3244;42.708;23.288;2023-04-20T09:11:58;94716.88;;;16.33;56.20
6423;BME280;3244;42.708;23.288;2023-04-20T09:14:26;94713.38;;;16.34;55.80
6423;BME280;3244;42.708;23.288;2023-04-20T09:16:55;94723.78;;;16.60;54.83
6423;BME280;3244;42.708;23.288;2023-04-20T09:19:27;94718.50;;;16.90;54.04
6423;BME280;3244;42.708;23.288;2023-04-20T09:21:56;94720.94;;;17.18;54.13
6423;BME280;3244;42.708;23.288;2023-04-20T09:24:30;94717.94;;;17.51;53.70
6423;BME280;3244;42.708;23.288;2023-04-20T09:26:56;94705.13;;;18.39;51.33
6423;BME280;3244;42.708;23.288;2023-04-20T09:29:23;94700.59;;;19.37;48.59
6423;BME280;3244;42.708;23.288;2023-04-20T09:31:51;94699.91;;;20.04;45.53
6423;BME280;3244;42.708;23.288;2023-04-20T09:34:18;94697.22;;;20.82;44.25
6423;BME280;3244;42.708;23.288;2023-04-20T09:36:46;94692.81;;;21.37;43.93
6423;BME280;3244;42.708;23.288;2023-04-20T09:39:18;94697.81;;;21.70;43.86
6423;BME280;3244;42.708;23.288;2023-04-20T09:41:46;94687.59;;;22.30;41.85
6423;BME280;3244;42.708;23.288;2023-04-20T09:44:14;94681.03;;;22.66;40.38
6423;BME280;3244;42.708;23.288;2023-04-20T09:46:42;94689.22;;;22.71;40.69
6423;BME280;3244;42.708;23.288;2023-04-20T09:49:10;94680.16;;;22.96;40.77
6423;BME280;3244;42.708;23.288;2023-04-20T09:51:39;94683.16;;;23.39;39.34
6423;BME280;3244;42.708;23.288;2023-04-20T09:54:10;94680.69;;;23.38;39.62
6423;BME280;3244;42.708;23.288;2023-04-20T09:56:39;94685.19;;;23.26;39.38
6423;BME280;3244;42.708;23.288;2023-04-20T09:59:06;94679.75;;;23.10;39.53
6423;BME280;3244;42.708;23.288;2023-04-20T10:01:34;94678.47;;;22.76;40.16
6423;BME280;3244;42.708;23.288;2023-04-20T10:04:05;94662.47;;;22.11;40.54
6423;BME280;3244;42.708;23.288;2023-04-20T10:06:34;94675.50;;;22.00;40.73
6423;BME280;3244;42.708;23.288;2023-04-20T10:09:02;94671.09;;;21.91;41.25
6423;BME280;3244;42.708;23.288;2023-04-20T10:11:30;94669.81;;;22.06;41.58
6423;BME280;3244;42.708;23.288;2023-04-20T10:14:01;94662.53;;;22.30;39.97
6423;BME280;3244;42.708;23.288;2023-04-20T10:16:28;94661.50;;;22.43;39.33
6423;BME280;3244;42.708;23.288;2023-04-20T10:18:59;94645.97;;;22.43;39.77
6423;BME280;3244;42.708;23.288;2023-04-20T10:21:27;94655.63;;;22.40;40.01
6423;BME280;3244;42.708;23.288;2023-04-20T10:23:54;94661.84;;;22.19;40.17
6423;BME280;3244;42.708;23.288;2023-04-20T10:26:23;94656.19;;;22.04;40.99
6423;BME280;3244;42.708;23.288;2023-04-20T10:28:50;94653.84;;;21.70;40.79
6423;BME280;3244;42.708;23.288;2023-04-20T10:31:18;94655.06;;;21.14;42.35
6423;BME280;3244;42.708;23.288;2023-04-20T10:33:53;94657.63;;;20.61;42.97
6423;BME280;3244;42.708;23.288;2023-04-20T10:36:25;94661.28;;;20.36;44.15
6423;BME280;3244;42.708;23.288;2023-04-20T10:38:52;94657.44;;;20.19;44.59
6423;BME280;3244;42.708;23.288;2023-04-20T10:41:20;94641.97;;;19.86;45.76
6423;BME280;3244;42.708;23.288;2023-04-20T10:43:47;94659.25;;;19.39;46.83
6423;BME280;3244;42.708;23.288;2023-04-20T10:46:18;94656.94;;;19.01;47.11
6423;BME280;3244;42.708;23.288;2023-04-20T10:48:50;94654.81;;;19.06;48.86
6423;BME280;3244;42.708;23.288;2023-04-20T10:51:17;94651.75;;;19.36;48.65
6423;BME280;3244;42.708;23.288;2023-04-20T10:53:43;94655.81;;;19.74;47.27
6423;BME280;3244;42.708;23.288;2023-04-20T10:56:10;94652.31;;;19.97;47.17
6423;BME280;3244;42.708;23.288;2023-04-20T10:58:37;94657.22;;;20.11;46.16
6423;BME280;3244;42.708;23.288;2023-04-20T11:01:05;94650.16;;;20.24;45.60
6423;BME280;3244;42.708;23.288;2023-04-20T11:03:33;94649.19;;;20.36;45.72
6423;BME280;3244;42.708;23.288;2023-04-20T11:06:00;94648.69;;;20.65;44.58
6423;BME280;3244;42.708;23.288;2023-04-20T11:08:37;94651.25;;;20.76;43.91
6423;BME280;3244;42.708;23.288;2023-04-20T11:11:05;94651.31;;;20.86;42.81
6423;BME280;3244;42.708;23.288;2023-04-20T11:13:32;94636.63;;;20.86;41.06
6423;BME280;3244;42.708;23.288;2023-04-20T11:15:59;94637.06;;;21.02;41.93
6423;BME280;3244;42.708;23.288;2023-04-20T11:18:26;94625.97;;;21.53;41.00
6423;BME280;3244;42.708;23.288;2023-04-20T11:20:56;94621.53;;;21.95;39.97
6423;BME280;3244;42.708;23.288;2023-04-20T11:23:23;94601.06;;;22.13;40.48
6423;BME280;3244;42.708;23.288;2023-04-20T11:25:52;94619.03;;;22.74;39.83
6423;BME280;3244;42.708;23.288;2023-04-20T11:28:19;94619.34;;;23.00;39.26
6423;BME280;3244;42.708;23.288;2023-04-20T11:30:46;94625.59;;;22.97;37.95
6423;BME280;3244;42.708;23.288;2023-04-20T11:33:14;94607.44;;;22.68;38.72
6423;BME280;3244;42.708;23.288;2023-04-20T11:35:42;94613.69;;;22.47;38.46
6423;BME280;3244;42.708;23.288;2023-04-20T11:38:10;94611.19;;;22.26;38.14
6423;BME280;3244;42.708;23.288;2023-04-20T11:40:37;94609.06;;;22.00;38.97
6423;BME280;3244;42.708;23.288;2023-04-20T11:43:03;94615.06;;;22.01;39.96
6423;BME280;3244;42.708;23.288;2023-04-20T11:45:31;94616.50;;;21.94;39.44
6423;BME280;3244;42.708;23.288;2023-04-20T11:47:59;94619.53;;;21.99;39.37
6423;BME280;3244;42.708;23.288;2023-04-20T11:50:26;94607.06;;;21.83;39.48
6423;BME280;3244;42.708;23.288;2023-04-20T11:52:52;94609.88;;;21.70;39.81
6423;BME280;3244;42.708;23.288;2023-04-20T11:55:20;94612.38;;;21.51;40.29
6423;BME280;3244;42.708;23.288;2023-04-20T11:57:47;94605.53;;;21.09;41.38
6423;BME280;3244;42.708;23.288;2023-04-20T12:00:15;94619.59;;;20.95;41.63
6423;BME280;3244;42.708;23.288;2023-04-20T12:02:42;94613.66;;;20.51;42.87
6423;BME280;3244;42.708;23.288;2023-04-20T12:05:09;94623.94;;;19.86;44.49
6423;BME280;3244;42.708;23.288;2023-04-20T12:07:36;94626.72;;;19.49;45.27
6423;BME280;3244;42.708;23.288;2023-04-20T12:10:04;94630.38;;;19.12;46.75
6423;BME280;3244;42.708;23.288;2023-04-20T12:12:32;94627.00;;;18.76;48.02
6423;BME280;3244;42.708;23.288;2023-04-20T12:14:59;94631.09;;;18.55;48.47
6423;BME280;3244;42.708;23.288;2023-04-20T12:17:26;94627.38;;;18.22;49.11
6423;BME280;3244;42.708;23.288;2023-04-20T12:19:52;94631.25;;;18.04;49.89
6423;BME280;3244;42.708;23.288;2023-04-20T12:22:19;94629.31;;;17.95;50.39
6423;BME280;3244;42.708;23.288;2023-04-20T12:24:46;94626.84;;;17.93;50.87
6423;BME280;3244;42.708;23.288;2023-04-20T12:27:13;94620.03;;;18.05;50.94
6423;BME280;3244;42.708;23.288;2023-04-20T12:29:41;94623.88;;;18.23;50.63
6423;BME280;3244;42.708;23.288;2023-04-20T12:32:07;94618.38;;;18.41;49.59
6423;BME280;3244;42.708;23.288;2023-04-20T12:34:34;94613.56;;;18.60;48.62
6423;BME280;3244;42.708;23.288;2023-04-20T12:37:01;94612.81;;;18.71;48.34
6423;BME280;3244;42.708;23.288;2023-04-20T12:39:28;94607.56;;;18.83;47.87
6423;BME280;3244;42.708;23.288;2023-04-20T12:41:54;94605.06;;;19.06;47.94
6423;BME280;3244;42.708;23.288;2023-04-20T12:44:22;94589.94;;;19.58;47.81
6423;BME280;3244;42.708;23.288;2023-04-20T12:46:50;94591.69;;;20.02;45.90
6423;BME280;3244;42.708;23.288;2023-04-20T12:49:17;94594.69;;;20.19;45.71
6423;BME280;3244;42.708;23.288;2023-04-20T12:51:43;94597.31;;;19.96;45.44
6423;BME280;3244;42.708;23.288;2023-04-20T12:54:10;94605.66;;;19.89;45.57
6423;BME280;3244;42.708;23.288;2023-04-20T12:56:37;94594.63;;;19.87;44.99
6423;BME280;3244;42.708;23.288;2023-04-20T12:59:04;94598.84;;;19.99;45.24
6423;BME280;3244;42.708;23.288;2023-04-20T13:01:30;94590.75;;;20.03;45.18
6423;BME280;3244;42.708;23.288;2023-04-20T13:03:58;94589.47;;;19.98;45.22
6423;BME280;3244;42.708;23.288;2023-04-20T13:06:25;94592.41;;;19.82;45.17
6423;BME280;3244;42.708;23.288;2023-04-20T13:08:52;94587.81;;;19.86;45.87
6423;BME280;3244;42.708;23.288;2023-04-20T13:11:19;94596.97;;;19.90;45.74